createdAt,value
2023-03-17T00:01:24.062Z,98283.03
2023-03-17T00:03:52.082Z,98283.14
2023-03-17T00:06:29.542Z,98284.65
2023-03-17T00:08:58.354Z,98290.77
2023-03-17T00:11:27.737Z,98293.13
2023-03-17T00:13:55.593Z,98292.88
2023-03-17T00:16:25.847Z,98292.28
2023-03-17T00:18:55.128Z,98292.87
2023-03-17T00:21:26.058Z,98289.51
2023-03-17T00:23:55.071Z,98289.25
2023-03-17T00:26:24.245Z,98295.17
2023-03-17T00:28:53.469Z,98294.73
2023-03-17T00:31:24.655Z,98297.51
2023-03-17T00:33:54.306Z,98299.45
2023-03-17T00:36:24.143Z,98298.82
2023-03-17T00:38:52.921Z,98296.13
2023-03-17T00:41:20.974Z,98295.63
2023-03-17T00:43:48.955Z,98295.29
2023-03-17T00:46:18.798Z,98296.70
2023-03-17T00:48:47.034Z,98299.45
2023-03-17T00:51:18.385Z,98297.42
2023-03-17T00:53:46.858Z,98298.14
2023-03-17T00:56:19.541Z,98294.21
2023-03-17T00:58:48.326Z,98295.62
2023-03-17T01:01:18.470Z,98296.32
2023-03-17T01:03:48.321Z,98297.54
2023-03-17T01:06:16.749Z,98297.04
2023-03-17T01:08:45.365Z,98297.72
2023-03-17T01:11:16.233Z,98300.13
2023-03-17T01:13:44.950Z,98300.65
2023-03-17T01:16:13.375Z,98298.77
2023-03-17T01:18:41.571Z,98296.75
2023-03-17T01:21:09.800Z,98296.11
2023-03-17T01:23:38.163Z,98297.17
2023-03-17T01:26:07.263Z,98297.02
2023-03-17T01:28:35.949Z,98293.63
2023-03-17T01:31:05.188Z,98294.20
2023-03-17T01:33:33.933Z,98295.28
2023-03-17T01:36:02.134Z,98296.33
2023-03-17T01:38:30.380Z,98299.83
2023-03-17T01:40:58.432Z,98305.38
2023-03-17T01:43:30.942Z,98308.52
2023-03-17T01:46:12.447Z,98308.42
2023-03-17T01:48:51.341Z,98306.98
2023-03-17T01:51:24.747Z,98309.11
2023-03-17T01:53:53.724Z,98311.71
2023-03-17T01:56:21.802Z,98316.72
2023-03-17T01:58:52.131Z,98320.02
2023-03-17T02:01:24.287Z,98324.17
2023-03-17T02:03:53.624Z,98324.71
2023-03-17T02:06:22.494Z,98324.24
2023-03-17T02:08:50.557Z,98324.09
2023-03-17T02:11:19.047Z,98323.75
2023-03-17T02:13:47.014Z,98324.26
2023-03-17T02:16:16.255Z,98326.30
2023-03-17T02:18:45.214Z,98327.84
2023-03-17T02:21:33.973Z,98330.43
2023-03-17T02:24:03.261Z,98333.00
2023-03-17T02:26:33.589Z,98336.61
2023-03-17T02:29:02.068Z,98340.24
2023-03-17T02:31:30.449Z,98340.96
2023-03-17T02:33:58.415Z,98341.34
2023-03-17T02:36:26.300Z,98341.35
2023-03-17T02:38:54.357Z,98342.77
2023-03-17T02:41:22.169Z,98346.06
2023-03-17T02:43:50.190Z,98350.73
2023-03-17T02:46:18.474Z,98353.50
2023-03-17T02:48:46.625Z,98357.44
2023-03-17T02:51:14.727Z,98361.52
2023-03-17T02:53:42.686Z,98362.01
2023-03-17T02:56:10.662Z,98366.46
2023-03-17T02:58:38.623Z,98365.96
2023-03-17T03:01:06.668Z,98366.63
2023-03-17T03:03:34.774Z,98369.20
2023-03-17T03:06:03.275Z,98370.91
2023-03-17T03:08:31.220Z,98369.70
2023-03-17T03:11:00.633Z,98371.60
2023-03-17T03:13:28.902Z,98373.87
2023-03-17T03:15:56.975Z,98378.52
2023-03-17T03:18:24.997Z,98382.65
2023-03-17T03:20:53.026Z,98383.89
2023-03-17T03:23:21.088Z,98386.86
2023-03-17T03:25:49.161Z,98387.09
2023-03-17T03:28:17.028Z,98389.69
2023-03-17T03:30:45.756Z,98396.57
2023-03-17T03:33:14.444Z,98399.34
2023-03-17T03:35:43.398Z,98398.00
2023-03-17T03:38:11.981Z,98402.45
2023-03-17T03:40:39.966Z,98405.73
2023-03-17T03:43:22.054Z,98410.70
2023-03-17T03:45:51.884Z,98411.75
2023-03-17T03:48:19.830Z,98413.98
2023-03-17T03:50:47.939Z,98416.56
2023-03-17T03:53:15.805Z,98419.83
2023-03-17T03:55:43.661Z,98422.05
2023-03-17T03:58:11.607Z,98425.15
2023-03-17T04:00:39.780Z,98422.94
2023-03-17T04:03:07.864Z,98425.33
2023-03-17T04:05:36.428Z,98426.89
2023-03-17T04:08:04.417Z,98433.55
2023-03-17T04:10:32.747Z,98438.01
2023-03-17T04:13:01.775Z,98440.06
2023-03-17T04:15:29.750Z,98446.04
2023-03-17T04:17:57.586Z,98450.65
2023-03-17T04:20:25.680Z,98450.14
2023-03-17T04:22:53.657Z,98454.58
2023-03-17T04:25:21.922Z,98454.95
2023-03-17T04:27:49.741Z,98462.28
2023-03-17T04:30:17.973Z,98464.50
2023-03-17T04:32:46.607Z,98467.41
2023-03-17T04:35:16.576Z,98474.74
2023-03-17T04:37:44.950Z,98471.50
2023-03-17T04:40:13.791Z,98467.91
2023-03-17T04:42:42.422Z,98468.77
2023-03-17T04:45:12.053Z,98469.45
2023-03-17T04:47:39.942Z,98470.12
2023-03-17T04:50:09.016Z,98473.54
2023-03-17T04:52:37.596Z,98478.15
2023-03-17T04:55:08.391Z,98478.31
2023-03-17T04:57:36.967Z,98476.77
2023-03-17T05:00:06.366Z,98479.17
2023-03-17T05:02:34.470Z,98480.02
2023-03-17T05:05:02.886Z,98477.98
2023-03-17T05:07:33.873Z,98480.36
2023-03-17T05:10:02.373Z,98479.16
2023-03-17T05:12:30.656Z,98484.45
2023-03-17T05:14:58.943Z,98488.38
2023-03-17T05:17:27.112Z,98487.02
2023-03-17T05:19:55.069Z,98485.65
2023-03-17T05:22:23.141Z,98489.24
2023-03-17T05:24:51.008Z,98486.34
2023-03-17T05:27:18.946Z,98484.11
2023-03-17T05:29:47.766Z,98488.22
2023-03-17T05:32:15.841Z,98487.36
2023-03-17T05:34:45.270Z,98485.49
2023-03-17T05:37:14.336Z,98487.71
2023-03-17T05:39:42.232Z,98492.99
2023-03-17T05:42:10.295Z,98497.95
2023-03-17T05:44:38.350Z,98497.27
2023-03-17T05:47:08.200Z,98495.23
2023-03-17T05:49:36.337Z,98495.89
2023-03-17T05:52:04.309Z,98494.86
2023-03-17T05:54:32.278Z,98491.27
2023-03-17T05:57:00.248Z,98491.94
2023-03-17T05:59:28.225Z,98495.50
2023-03-17T06:01:56.389Z,98498.73
2023-03-17T06:04:24.365Z,98499.06
2023-03-17T06:06:52.578Z,98498.36
2023-03-17T06:09:20.508Z,98500.23
2023-03-17T06:11:48.474Z,98502.42
2023-03-17T06:14:16.443Z,98506.31
2023-03-17T06:16:44.618Z,98507.33
2023-03-17T06:19:12.453Z,98505.58
2023-03-17T06:21:40.585Z,98505.21
2023-03-17T06:24:08.960Z,98507.73
2023-03-17T06:26:37.631Z,98506.36
2023-03-17T06:29:09.196Z,98507.02
2023-03-17T06:31:37.322Z,98506.82
2023-03-17T06:34:05.657Z,98508.83
2023-03-17T06:36:33.821Z,98512.18
2023-03-17T06:39:02.283Z,98514.50
2023-03-17T06:41:30.251Z,98510.45
2023-03-17T06:43:58.201Z,98514.13
2023-03-17T06:46:26.255Z,98513.39
2023-03-17T06:48:54.468Z,98512.11
2023-03-17T06:51:22.334Z,98514.59
2023-03-17T06:53:50.306Z,98511.45
2023-03-17T06:56:29.547Z,98513.59
2023-03-17T06:58:58.433Z,98510.14
2023-03-17T07:01:27.921Z,98512.58
2023-03-17T07:03:56.414Z,98508.34
2023-03-17T07:06:24.308Z,98510.26
2023-03-17T07:08:52.453Z,98511.54
2023-03-17T07:11:20.839Z,98511.36
2023-03-17T07:13:48.636Z,98513.70
2023-03-17T07:16:19.602Z,98513.34
2023-03-17T07:18:48.438Z,98511.72
2023-03-17T07:21:16.730Z,98511.31
2023-03-17T07:23:44.881Z,98512.77
2023-03-17T07:26:12.827Z,98516.98
2023-03-17T07:28:40.817Z,98521.02
2023-03-17T07:31:09.689Z,98523.66
2023-03-17T07:33:38.291Z,98523.73
2023-03-17T07:36:07.483Z,98528.81
2023-03-17T07:38:36.284Z,98526.21
2023-03-17T07:41:05.078Z,98529.98
2023-03-17T07:43:33.564Z,98530.16
2023-03-17T07:46:01.707Z,98537.55
2023-03-17T07:48:31.331Z,98537.41
2023-03-17T07:50:59.508Z,98536.75
2023-03-17T07:53:27.683Z,98536.25
2023-03-17T07:55:55.962Z,98534.34
2023-03-17T07:58:23.833Z,98531.77
2023-03-17T08:00:52.002Z,98529.91
2023-03-17T08:03:20.017Z,98529.05
2023-03-17T08:05:51.721Z,98531.14
2023-03-17T08:08:22.359Z,98527.86
2023-03-17T08:10:51.023Z,98527.02
2023-03-17T08:13:20.012Z,98523.99
2023-03-17T08:15:47.912Z,98525.70
2023-03-17T08:18:15.945Z,98526.77
2023-03-17T08:20:44.003Z,98526.48
2023-03-17T08:23:11.914Z,98523.54
2023-03-17T08:25:40.022Z,98526.05
2023-03-17T08:28:08.187Z,98523.05
2023-03-17T08:30:37.985Z,98519.23
2023-03-17T08:33:06.251Z,98520.58
2023-03-17T08:35:34.745Z,98522.77
2023-03-17T08:38:03.731Z,98517.77
2023-03-17T08:40:32.030Z,98515.36
2023-03-17T08:43:00.568Z,98515.36
2023-03-17T08:45:28.590Z,98514.53
2023-03-17T08:47:56.750Z,98515.23
2023-03-17T08:50:25.341Z,98511.92
2023-03-17T08:52:54.508Z,98510.58
2023-03-17T08:55:22.484Z,98511.21
2023-03-17T08:57:50.460Z,98513.20
2023-03-17T09:00:20.468Z,98511.73
2023-03-17T09:02:48.909Z,98512.19
2023-03-17T09:05:17.802Z,98511.23
2023-03-17T09:07:45.968Z,98507.73
2023-03-17T09:10:15.059Z,98504.23
2023-03-17T09:12:43.079Z,98499.26
2023-03-17T09:15:12.039Z,98500.33
2023-03-17T09:17:40.049Z,98496.75
2023-03-17T09:20:08.552Z,98493.13
2023-03-17T09:22:37.009Z,98493.25
2023-03-17T09:25:05.284Z,98490.77
2023-03-17T09:27:33.248Z,98488.34
2023-03-17T09:30:01.221Z,98487.16
2023-03-17T09:32:29.205Z,98490.77
2023-03-17T09:34:57.784Z,98489.36
2023-03-17T09:37:26.356Z,98490.97
2023-03-17T09:39:54.163Z,98490.06
2023-03-17T09:42:36.533Z,98492.94
2023-03-17T09:45:23.553Z,98496.52
2023-03-17T09:47:51.519Z,98496.79
2023-03-17T09:50:24.040Z,98493.58
2023-03-17T09:52:55.551Z,98494.85
2023-03-17T09:55:28.236Z,98496.86
2023-03-17T09:58:01.057Z,98495.00
2023-03-17T10:00:31.304Z,98497.27
2023-03-17T10:03:00.020Z,98494.54
2023-03-17T10:05:30.249Z,98493.48
2023-03-17T10:08:22.739Z,98489.06
2023-03-17T10:11:00.119Z,98490.25
2023-03-17T10:13:28.151Z,98488.23
2023-03-17T10:16:28.522Z,98487.23
2023-03-17T10:18:58.700Z,98485.80
2023-03-17T10:21:32.992Z,98483.20
2023-03-17T10:24:03.256Z,98476.54
2023-03-17T10:26:33.878Z,98469.28
2023-03-17T10:29:04.433Z,98467.59
2023-03-17T10:31:34.979Z,98465.31
2023-03-17T10:34:20.405Z,98465.31
2023-03-17T10:36:55.577Z,98462.08
2023-03-17T10:39:24.780Z,98461.81
2023-03-17T10:41:59.696Z,98456.02
2023-03-17T10:44:39.832Z,98451.69
2023-03-17T10:47:20.613Z,98444.98
2023-03-17T10:49:49.184Z,98440.08
2023-03-17T10:52:23.556Z,98437.85
2023-03-17T10:54:51.487Z,98433.97
2023-03-17T10:57:20.087Z,98427.05
2023-03-17T10:59:49.456Z,98426.48
2023-03-17T11:02:25.910Z,98428.38
2023-03-17T11:05:05.286Z,98425.39
2023-03-17T11:07:40.199Z,98425.23
2023-03-17T11:10:17.538Z,98418.50
2023-03-17T11:12:48.606Z,98418.13
2023-03-17T11:15:18.045Z,98413.92
2023-03-17T11:17:56.136Z,98408.57
2023-03-17T11:20:24.113Z,98406.40
2023-03-17T11:23:00.917Z,98402.35
2023-03-17T11:25:29.759Z,98399.69
2023-03-17T11:28:17.068Z,98394.86
2023-03-17T11:30:54.395Z,98393.17
2023-03-17T11:33:41.201Z,98390.30
2023-03-17T11:36:28.215Z,98386.02
2023-03-17T11:38:56.338Z,98380.40
2023-03-17T11:41:28.577Z,98374.27
2023-03-17T11:44:15.842Z,98371.44
2023-03-17T11:47:19.594Z,98367.93
2023-03-17T11:50:10.295Z,98367.95
2023-03-17T11:52:58.432Z,98366.08
2023-03-17T11:55:36.558Z,98366.41
2023-03-17T11:58:13.575Z,98361.77
2023-03-17T12:00:53.065Z,98355.77
2023-03-17T12:03:36.719Z,98355.10
2023-03-17T12:06:07.645Z,98356.17
2023-03-17T12:08:36.031Z,98349.77
2023-03-17T12:11:07.052Z,98344.14
2023-03-17T12:13:40.327Z,98338.48
2023-03-17T12:16:29.619Z,98336.23
2023-03-17T12:19:16.984Z,98334.23
2023-03-17T12:21:54.442Z,98326.11
2023-03-17T12:24:35.090Z,98323.73
2023-03-17T12:27:07.649Z,98326.48
2023-03-17T12:29:52.616Z,98325.69
2023-03-17T12:32:26.722Z,98326.62
2023-03-17T12:34:57.477Z,98322.36
2023-03-17T12:37:27.838Z,98328.65
2023-03-17T12:40:07.466Z,98324.29
2023-03-17T12:42:38.816Z,98317.27
2023-03-17T12:45:09.541Z,98314.54
2023-03-17T12:47:52.783Z,98315.19
2023-03-17T12:50:23.714Z,98311.05
2023-03-17T12:52:53.218Z,98311.94
2023-03-17T12:55:24.565Z,98311.19
2023-03-17T12:58:03.936Z,98304.38
2023-03-17T13:00:33.550Z,98303.77
2023-03-17T13:03:20.476Z,98302.29
2023-03-17T13:05:51.153Z,98303.02
2023-03-17T13:08:24.446Z,98299.71
2023-03-17T13:11:12.791Z,98296.77
2023-03-17T13:13:44.786Z,98293.13
2023-03-17T13:16:37.644Z,98288.25
2023-03-17T13:19:20.229Z,98292.02
2023-03-17T13:21:53.013Z,98293.95
2023-03-17T13:24:22.411Z,98288.69
2023-03-17T13:26:50.270Z,98288.37
2023-03-17T13:29:33.547Z,98285.11
2023-03-17T13:32:20.015Z,98282.80
2023-03-17T13:34:49.917Z,98281.10
2023-03-17T13:37:36.492Z,98276.20
2023-03-17T13:40:22.213Z,98277.30
2023-03-17T13:42:50.194Z,98272.20
2023-03-17T13:45:32.350Z,98270.32
2023-03-17T13:48:19.103Z,98265.81
2023-03-17T13:50:47.578Z,98261.41
2023-03-17T13:53:16.061Z,98261.72
2023-03-17T13:56:03.848Z,98262.55
2023-03-17T13:58:33.399Z,98259.42
2023-03-17T14:01:05.489Z,98258.63
2023-03-17T14:03:42.191Z,98259.33
2023-03-17T14:06:12.337Z,98257.95
2023-03-17T14:08:49.347Z,98258.30
2023-03-17T14:11:24.881Z,98258.80
2023-03-17T14:13:56.231Z,98262.33
2023-03-17T14:16:30.198Z,98263.81
2023-03-17T14:19:11.127Z,98265.56
2023-03-17T14:21:39.192Z,98264.36
2023-03-17T14:24:29.926Z,98259.95
2023-03-17T14:26:57.964Z,98256.30
2023-03-17T14:29:29.762Z,98258.23
2023-03-17T14:32:12.141Z,98256.54
2023-03-17T14:34:48.424Z,98255.53
2023-03-17T14:37:16.672Z,98254.48
2023-03-17T14:39:46.489Z,98251.48
2023-03-17T14:42:14.764Z,98254.27
2023-03-17T14:44:43.255Z,98257.84
2023-03-17T14:47:23.711Z,98253.40
2023-03-17T14:49:53.522Z,98256.16
2023-03-17T14:52:23.945Z,98255.52
2023-03-17T14:54:53.718Z,98257.62
2023-03-17T14:57:23.878Z,98256.23
2023-03-17T14:59:59.750Z,98252.50
2023-03-17T15:02:33.298Z,98255.58
2023-03-17T15:05:20.055Z,98254.50
2023-03-17T15:07:48.021Z,98253.63
2023-03-17T15:10:20.706Z,98250.58
2023-03-17T15:12:49.083Z,98248.13
2023-03-17T15:15:22.779Z,98247.66
2023-03-17T15:17:52.199Z,98250.22
2023-03-17T15:20:20.868Z,98245.60
2023-03-17T15:22:56.203Z,98244.44
2023-03-17T15:25:24.079Z,98243.02
2023-03-17T15:27:52.558Z,98245.01
2023-03-17T15:30:21.249Z,98241.42
2023-03-17T15:33:00.709Z,98243.55
2023-03-17T15:35:29.067Z,98246.88
2023-03-17T15:37:57.140Z,98244.86
2023-03-17T15:40:25.102Z,98248.52
2023-03-17T15:42:52.930Z,98249.55
2023-03-17T15:45:21.142Z,98248.55
2023-03-17T15:47:49.335Z,98252.79
2023-03-17T15:50:24.224Z,98255.33
2023-03-17T15:52:58.790Z,98254.69
2023-03-17T15:55:31.284Z,98253.66
2023-03-17T15:57:59.328Z,98258.46
2023-03-17T16:00:29.911Z,98261.06
2023-03-17T16:02:59.858Z,98265.42
2023-03-17T16:05:29.546Z,98273.25
2023-03-17T16:07:57.841Z,98272.61
2023-03-17T16:10:27.153Z,98276.23
2023-03-17T16:12:55.010Z,98277.33
2023-03-17T16:15:24.529Z,98279.63
2023-03-17T16:17:54.664Z,98280.93
2023-03-17T16:20:22.710Z,98285.40
2023-03-17T16:22:52.016Z,98284.73
2023-03-17T16:25:25.620Z,98284.48
2023-03-17T16:27:54.812Z,98285.44
2023-03-17T16:30:24.826Z,98286.02
2023-03-17T16:32:53.223Z,98284.20
2023-03-17T16:35:22.413Z,98285.23
2023-03-17T16:37:52.526Z,98291.03
2023-03-17T16:40:22.549Z,98292.23
2023-03-17T16:42:50.622Z,98292.17
2023-03-17T16:45:28.724Z,98294.71
2023-03-17T16:47:57.221Z,98292.61
2023-03-17T16:50:26.815Z,98293.30
2023-03-17T16:52:54.811Z,98296.21
2023-03-17T16:55:24.028Z,98295.13
2023-03-17T16:57:53.908Z,98291.95
2023-03-17T17:00:27.231Z,98294.95
2023-03-17T17:02:55.821Z,98298.52
2023-03-17T17:05:25.082Z,98298.22
2023-03-17T17:07:56.152Z,98298.58
2023-03-17T17:10:25.630Z,98299.78
2023-03-17T17:12:53.931Z,98301.05
2023-03-17T17:15:22.603Z,98303.27
2023-03-17T17:17:52.268Z,98303.56
2023-03-17T17:20:21.881Z,98302.65
2023-03-17T17:22:50.700Z,98304.73
2023-03-17T17:25:18.670Z,98303.21
2023-03-17T17:27:47.364Z,98305.95
2023-03-17T17:30:17.926Z,98307.36
2023-03-17T17:32:46.266Z,98308.83
2023-03-17T17:35:15.086Z,98311.74
2023-03-17T17:37:42.993Z,98311.45
2023-03-17T17:40:13.081Z,98315.05
2023-03-17T17:42:41.216Z,98318.23
2023-03-17T17:45:10.412Z,98319.13
2023-03-17T17:47:38.375Z,98321.29
2023-03-17T17:50:07.316Z,98322.12
2023-03-17T17:52:35.351Z,98321.36
2023-03-17T17:55:03.725Z,98320.48
2023-03-17T17:57:31.691Z,98323.05
2023-03-17T17:59:59.702Z,98323.50
2023-03-17T18:02:27.638Z,98320.65
2023-03-17T18:04:55.946Z,98322.66
2023-03-17T18:07:23.982Z,98326.23
2023-03-17T18:09:51.940Z,98324.14
2023-03-17T18:12:19.807Z,98324.46
2023-03-17T18:14:47.795Z,98323.89
2023-03-17T18:17:21.791Z,98323.65
2023-03-17T18:19:50.681Z,98326.11
2023-03-17T18:22:18.651Z,98328.58
2023-03-17T18:24:46.614Z,98328.87
2023-03-17T18:27:15.407Z,98332.00
2023-03-17T18:29:43.820Z,98335.60
2023-03-17T18:32:12.387Z,98333.63
2023-03-17T18:34:45.261Z,98328.77
2023-03-17T18:37:15.581Z,98328.00
2023-03-17T18:39:48.387Z,98330.99
2023-03-17T18:42:19.725Z,98333.48
2023-03-17T18:44:47.792Z,98333.86
2023-03-17T18:47:16.578Z,98330.62
2023-03-17T18:49:47.051Z,98331.77
2023-03-17T18:52:15.281Z,98333.29
2023-03-17T18:54:43.245Z,98335.80
2023-03-17T18:57:11.220Z,98332.83
2023-03-17T18:59:39.900Z,98335.41
2023-03-17T19:02:08.575Z,98337.64
2023-03-17T19:04:36.654Z,98337.09
2023-03-17T19:07:04.538Z,98337.84
2023-03-17T19:09:33.020Z,98339.07
2023-03-17T19:12:01.177Z,98341.77
2023-03-17T19:14:29.293Z,98344.42
2023-03-17T19:16:57.236Z,98342.02
2023-03-17T19:19:25.196Z,98344.52
2023-03-17T19:21:53.162Z,98346.06
2023-03-17T19:24:21.357Z,98349.28
2023-03-17T19:26:49.509Z,98350.80
2023-03-17T19:29:17.483Z,98349.13
2023-03-17T19:31:48.365Z,98355.89
2023-03-17T19:34:19.455Z,98357.15
2023-03-17T19:36:47.429Z,98356.58
2023-03-17T19:39:15.675Z,98361.52
2023-03-17T19:41:43.981Z,98363.33
2023-03-17T19:44:12.261Z,98363.00
2023-03-17T19:46:40.532Z,98368.89
2023-03-17T19:49:08.353Z,98372.07
2023-03-17T19:51:36.993Z,98377.17
2023-03-17T19:54:05.572Z,98378.35
2023-03-17T19:56:33.956Z,98379.84
2023-03-17T19:59:02.430Z,98382.10
2023-03-17T20:01:32.189Z,98379.43
2023-03-17T20:04:00.465Z,98378.66
2023-03-17T20:06:29.716Z,98380.61
2023-03-17T20:08:58.039Z,98379.82
2023-03-17T20:11:26.317Z,98378.53
2023-03-17T20:13:54.303Z,98378.23
2023-03-17T20:16:22.353Z,98377.23
2023-03-17T20:18:50.485Z,98372.42
2023-03-17T20:21:18.674Z,98364.55
2023-03-17T20:23:46.631Z,98364.58
2023-03-17T20:26:14.905Z,98366.14
2023-03-17T20:28:42.827Z,98365.14
2023-03-17T20:31:10.862Z,98362.80
2023-03-17T20:33:38.817Z,98362.09
2023-03-17T20:36:07.060Z,98362.80
2023-03-17T20:38:39.100Z,98361.63
2023-03-17T20:41:09.086Z,98361.16
2023-03-17T20:43:37.769Z,98366.23
2023-03-17T20:46:08.728Z,98368.38
2023-03-17T20:48:37.367Z,98374.64
2023-03-17T20:51:06.627Z,98371.36
2023-03-17T20:53:34.751Z,98368.63
2023-03-17T20:56:02.935Z,98375.38
2023-03-17T20:58:30.791Z,98379.54
2023-03-17T21:00:58.712Z,98378.89
2023-03-17T21:03:26.841Z,98381.69
2023-03-17T21:05:54.814Z,98383.78
2023-03-17T21:08:23.508Z,98378.52
2023-03-17T21:10:51.665Z,98379.41
2023-03-17T21:13:19.530Z,98379.30
2023-03-17T21:15:47.545Z,98382.47
2023-03-17T21:18:15.682Z,98375.90
2023-03-17T21:20:43.875Z,98378.17
2023-03-17T21:23:12.023Z,98373.95
2023-03-17T21:25:40.001Z,98374.68
2023-03-17T21:28:08.381Z,98373.31
2023-03-17T21:30:37.262Z,98373.86
2023-03-17T21:33:05.609Z,98369.14
2023-03-17T21:35:35.682Z,98369.88
2023-03-17T21:38:04.045Z,98369.60
2023-03-17T21:40:32.421Z,98370.84
2023-03-17T21:43:00.908Z,98370.55
2023-03-17T21:45:29.002Z,98372.48
2023-03-17T21:47:57.050Z,98373.55
2023-03-17T21:50:25.934Z,98374.96
2023-03-17T21:52:54.229Z,98372.27
2023-03-17T21:55:22.183Z,98371.82
2023-03-17T21:57:50.625Z,98375.98
2023-03-17T22:00:19.040Z,98370.52
2023-03-17T22:02:47.154Z,98367.80
2023-03-17T22:05:15.300Z,98368.30
2023-03-17T22:07:43.931Z,98366.75
2023-03-17T22:10:12.573Z,98362.83
2023-03-17T22:12:40.956Z,98366.44
2023-03-17T22:15:10.554Z,98366.33
2023-03-17T22:17:39.839Z,98363.29
2023-03-17T22:20:09.222Z,98362.46
2023-03-17T22:22:37.199Z,98361.31
2023-03-17T22:25:06.371Z,98359.15
2023-03-17T22:27:34.700Z,98360.56
2023-03-17T22:30:02.875Z,98361.48
2023-03-17T22:32:30.912Z,98361.48
2023-03-17T22:34:59.194Z,98362.20
2023-03-17T22:37:28.108Z,98363.08
2023-03-17T22:39:56.382Z,98366.37
2023-03-17T22:42:24.259Z,98365.36
2023-03-17T22:44:52.232Z,98366.23
2023-03-17T22:47:20.116Z,98368.48
2023-03-17T22:49:48.130Z,98366.95
2023-03-17T22:52:16.134Z,98370.56
2023-03-17T22:54:44.216Z,98372.97
2023-03-17T22:57:12.284Z,98370.58
2023-03-17T22:59:40.654Z,98370.27
2023-03-17T23:02:08.651Z,98374.23
2023-03-17T23:04:37.008Z,98376.97
2023-03-17T23:07:05.688Z,98376.31
2023-03-17T23:09:33.772Z,98373.25
2023-03-17T23:12:02.661Z,98372.39
2023-03-17T23:14:30.635Z,98377.54
2023-03-17T23:16:58.564Z,98380.44
2023-03-17T23:19:26.568Z,98384.73
2023-03-17T23:21:54.435Z,98380.98
2023-03-17T23:24:22.403Z,98379.45
2023-03-17T23:26:50.782Z,98376.71
2023-03-17T23:29:19.167Z,98378.63
2023-03-17T23:31:47.611Z,98379.66
2023-03-17T23:34:16.024Z,98383.80
2023-03-17T23:36:44.096Z,98384.84
2023-03-17T23:39:12.058Z,98383.30
2023-03-17T23:41:40.025Z,98385.17
2023-03-17T23:44:09.222Z,98388.76
2023-03-17T23:46:37.904Z,98386.89
2023-03-17T23:49:07.425Z,98388.61
2023-03-17T23:51:35.800Z,98384.86
2023-03-17T23:54:05.191Z,98383.66
2023-03-17T23:56:33.700Z,98386.39
2023-03-17T23:59:01.958Z,98386.02
